Time;durP1;ratioP1;P1;durP2;ratioP2;P2;SDS_P1;SDS_P2;PMS_P1;PMS_P2;Temp;Humidity;BMP_temperature;BMP_pressure;BME280_temperature;BME280_humidity;BME280_pressure;Samples;Min_cycle;Max_cycle;Signal;HPM_P1;HPM_P2
2023/07/22 00:00:46;;;;;;;8.02;4.32;;;;;;;;;;5040383;28;20071;-66
2023/07/22 00:03:12;;;;;;;10.38;4.93;;;;;;;;;;5057849;28;20416;-67
2023/07/22 00:05:40;;;;;;;11.38;4.38;;;;;;;;;;5062335;28;20036;-65
2023/07/22 00:08:07;;;;;;;10.23;5.20;;;;;;;;;;5044812;28;20852;-64
2023/07/22 00:10:33;;;;;;;12.93;6.18;;;;;;;;;;5060961;28;20447;-65
2023/07/22 00:13:01;;;;;;;13.95;5.95;;;;;;;;;;5060589;28;20032;-65
2023/07/22 00:15:27;;;;;;;15.85;6.57;;;;;;;;;;5062036;28;20105;-69
2023/07/22 00:17:54;;;;;;;12.52;5.82;;;;;;;;;;5063622;28;20063;-61
2023/07/22 00:20:22;;;;;;;18.63;6.85;;;;;;;;;;5059707;28;20493;-62
2023/07/22 00:22:50;;;;;;;23.63;7.15;;;;;;;;;;5062107;28;20032;-60
2023/07/22 00:25:16;;;;;;;13.25;6.32;;;;;;;;;;5060304;28;20849;-62
2023/07/22 00:27:43;;;;;;;13.88;6.22;;;;;;;;;;5039554;28;20039;-59
2023/07/22 00:30:10;;;;;;;15.18;6.13;;;;;;;;;;5064206;28;20033;-64
2023/07/22 00:32:37;;;;;;;23.05;6.47;;;;;;;;;;5061583;28;20028;-63
2023/07/22 00:35:06;;;;;;;15.43;5.63;;;;;;;;;;5060872;28;20133;-62
2023/07/22 00:37:33;;;;;;;11.75;5.13;;;;;;;;;;5062169;28;20052;-62
2023/07/22 00:39:59;;;;;;;15.15;5.13;;;;;;;;;;5059200;28;20427;-62
2023/07/22 00:42:26;;;;;;;13.40;5.47;;;;;;;;;;5059779;28;20032;-62
2023/07/22 00:44:52;;;;;;;19.15;5.85;;;;;;;;;;5059732;28;20068;-61
2023/07/22 00:47:20;;;;;;;9.48;5.07;;;;;;;;;;5059351;28;21047;-61
2023/07/22 00:49:48;;;;;;;13.02;4.82;;;;;;;;;;5061244;28;20410;-62
2023/07/22 00:52:16;;;;;;;13.00;4.40;;;;;;;;;;5062423;28;20177;-61
2023/07/22 00:54:43;;;;;;;7.72;4.20;;;;;;;;;;5057918;28;20039;-63
2023/07/22 00:57:10;;;;;;;7.72;3.72;;;;;;;;;;5061057;28;20024;-60
2023/07/22 00:59:36;;;;;;;9.15;4.82;;;;;;;;;;5060183;28;20040;-61
2023/07/22 01:02:03;;;;;;;7.53;3.45;;;;;;;;;;5058711;28;20024;-61
2023/07/22 01:04:29;;;;;;;7.30;3.30;;;;;;;;;;5060600;28;20497;-60
2023/07/22 01:06:56;;;;;;;7.00;3.60;;;;;;;;;;5060651;28;20066;-60
2023/07/22 01:09:25;;;;;;;5.65;3.08;;;;;;;;;;5059141;28;20048;-61
2023/07/22 01:11:52;;;;;;;7.07;2.95;;;;;;;;;;5061058;28;20159;-63
2023/07/22 01:14:18;;;;;;;8.25;3.55;;;;;;;;;;5058094;28;20037;-62
2023/07/22 01:16:45;;;;;;;8.63;3.92;;;;;;;;;;5059193;28;20408;-64
2023/07/22 01:19:12;;;;;;;9.27;3.80;;;;;;;;;;5058929;28;20028;-62
2023/07/22 01:21:39;;;;;;;6.25;3.45;;;;;;;;;;5060256;28;20028;-63
2023/07/22 01:24:05;;;;;;;7.45;3.70;;;;;;;;;;5058686;28;20115;-61
2023/07/22 01:26:32;;;;;;;9.07;4.03;;;;;;;;;;5060323;28;20063;-64
2023/07/22 01:29:07;;;;;;;6.07;3.55;;;;;;;;;;5059534;28;20062;-62
2023/07/22 01:31:39;;;;;;;6.93;3.33;;;;;;;;;;5061972;28;20143;-64
2023/07/22 01:34:05;;;;;;;6.32;2.85;;;;;;;;;;5058258;28;20066;-63
2023/07/22 01:36:32;;;;;;;6.90;3.00;;;;;;;;;;5060291;28;20824;-63
2023/07/22 01:39:00;;;;;;;7.95;3.50;;;;;;;;;;5061833;28;20040;-64
2023/07/22 01:41:27;;;;;;;11.35;4.20;;;;;;;;;;5061936;28;20177;-64
2023/07/22 01:43:53;;;;;;;6.72;3.75;;;;;;;;;;5060581;28;20155;-64
2023/07/22 01:46:21;;;;;;;7.22;4.25;;;;;;;;;;5059894;28;20076;-66
2023/07/22 01:48:47;;;;;;;6.75;3.58;;;;;;;;;;5059267;28;20041;-64
2023/07/22 01:51:14;;;;;;;7.80;3.80;;;;;;;;;;5062636;28;20401;-64
2023/07/22 01:53:41;;;;;;;8.40;3.92;;;;;;;;;;5059988;28;20075;-64
2023/07/22 01:56:07;;;;;;;9.73;3.80;;;;;;;;;;5063387;28;20041;-64
2023/07/22 01:58:34;;;;;;;8.43;3.80;;;;;;;;;;5062463;28;20131;-64
2023/07/22 02:01:00;;;;;;;9.45;4.00;;;;;;;;;;5060700;28;20036;-64
2023/07/22 02:03:27;;;;;;;7.85;4.15;;;;;;;;;;5055415;28;20069;-63
2023/07/22 02:05:54;;;;;;;8.25;3.90;;;;;;;;;;5058966;28;20397;-65
2023/07/22 02:08:21;;;;;;;8.73;3.33;;;;;;;;;;5058661;28;20072;-63
2023/07/22 02:10:47;;;;;;;7.50;3.42;;;;;;;;;;5059484;28;20086;-63
2023/07/22 02:13:14;;;;;;;6.45;2.78;;;;;;;;;;5061319;28;20043;-63
2023/07/22 02:15:42;;;;;;;8.73;3.30;;;;;;;;;;5067062;28;20092;-63
2023/07/22 02:18:08;;;;;;;6.57;3.22;;;;;;;;;;5066421;28;20025;-63
2023/07/22 02:20:35;;;;;;;10.75;3.17;;;;;;;;;;5060686;28;20024;-64
2023/07/22 02:23:01;;;;;;;6.57;2.97;;;;;;;;;;5040056;28;20032;-64
2023/07/22 02:25:28;;;;;;;9.05;3.38;;;;;;;;;;5060129;28;20033;-65
2023/07/22 02:27:54;;;;;;;8.98;3.38;;;;;;;;;;5059720;28;20068;-64
2023/07/22 02:30:21;;;;;;;9.68;3.05;;;;;;;;;;5033274;28;20672;-63
2023/07/22 02:32:47;;;;;;;10.20;3.80;;;;;;;;;;5033164;28;20024;-64
2023/07/22 02:35:33;;;;;;;7.53;3.35;;;;;;;;;;5026257;28;20580;-63
2023/07/22 02:38:20;;;;;;;10.00;3.42;;;;;;;;;;5006380;28;20045;-63
2023/07/22 02:40:46;;;;;;;6.00;3.10;;;;;;;;;;4988850;28;20033;-62
2023/07/22 02:43:13;;;;;;;8.18;3.75;;;;;;;;;;5004638;28;20050;-64
2023/07/22 02:45:40;;;;;;;8.88;3.45;;;;;;;;;;4985856;28;20573;-63
2023/07/22 02:48:06;;;;;;;6.93;3.40;;;;;;;;;;5002956;28;20042;-63
2023/07/22 02:50:33;;;;;;;6.25;3.17;;;;;;;;;;5004042;28;20548;-64
2023/07/22 02:53:00;;;;;;;8.63;3.72;;;;;;;;;;5003343;28;20087;-63
2023/07/22 02:55:26;;;;;;;9.27;3.60;;;;;;;;;;5004712;28;20121;-63
2023/07/22 02:57:53;;;;;;;5.68;3.00;;;;;;;;;;5016136;28;20060;-65
2023/07/22 03:00:23;;;;;;;7.05;3.10;;;;;;;;;;4999338;28;20048;-63
2023/07/22 03:02:53;;;;;;;6.55;3.17;;;;;;;;;;5016838;28;20057;-63
2023/07/22 03:05:21;;;;;;;9.85;3.15;;;;;;;;;;5017872;28;20045;-65
2023/07/22 03:07:47;;;;;;;6.97;2.90;;;;;;;;;;5050723;28;20044;-63
2023/07/22 03:10:14;;;;;;;7.35;3.50;;;;;;;;;;5035209;28;20033;-62
2023/07/22 03:12:40;;;;;;;9.15;3.38;;;;;;;;;;5044869;28;20049;-63
2023/07/22 03:15:12;;;;;;;9.75;3.42;;;;;;;;;;5047894;28;20408;-64
2023/07/22 03:17:43;;;;;;;8.10;3.15;;;;;;;;;;5067911;28;20066;-64
2023/07/22 03:20:14;;;;;;;6.40;3.10;;;;;;;;;;5049981;28;20056;-63
2023/07/22 03:22:41;;;;;;;9.32;3.10;;;;;;;;;;5048297;28;20048;-63
2023/07/22 03:25:10;;;;;;;8.02;3.00;;;;;;;;;;5043982;28;20079;-63
2023/07/22 03:27:36;;;;;;;9.35;3.28;;;;;;;;;;5062890;28;20587;-63
2023/07/22 03:30:10;;;;;;;5.93;2.63;;;;;;;;;;5065395;28;20048;-64
2023/07/22 03:32:37;;;;;;;6.57;2.75;;;;;;;;;;5060691;28;20040;-64
2023/07/22 03:35:04;;;;;;;10.93;3.42;;;;;;;;;;5048285;28;20036;-64
2023/07/22 03:37:31;;;;;;;5.97;2.80;;;;;;;;;;5046266;28;21706;-66
2023/07/22 03:39:58;;;;;;;5.15;2.53;;;;;;;;;;5065831;28;20104;-67
2023/07/22 03:42:24;;;;;;;7.13;2.80;;;;;;;;;;5063169;28;20745;-65
2023/07/22 03:44:51;;;;;;;7.18;3.00;;;;;;;;;;5042721;28;20124;-64
2023/07/22 03:47:17;;;;;;;8.68;2.95;;;;;;;;;;5066947;28;20116;-62
2023/07/22 03:49:44;;;;;;;8.82;2.85;;;;;;;;;;5062069;28;20048;-62
2023/07/22 03:52:14;;;;;;;6.28;3.05;;;;;;;;;;5048450;28;20579;-62
2023/07/22 03:54:40;;;;;;;5.60;2.50;;;;;;;;;;5061972;28;21646;-62
2023/07/22 03:57:07;;;;;;;6.90;2.90;;;;;;;;;;5063336;28;20036;-60
2023/07/22 03:59:34;;;;;;;6.57;2.78;;;;;;;;;;5060866;28;20079;-62
2023/07/22 04:02:00;;;;;;;5.78;2.95;;;;;;;;;;5065446;28;20063;-62
2023/07/22 04:04:27;;;;;;;6.78;2.45;;;;;;;;;;5046826;28;20547;-61
2023/07/22 04:06:53;;;;;;;6.82;2.78;;;;;;;;;;5063845;28;20119;-61
2023/07/22 04:09:20;;;;;;;5.05;2.70;;;;;;;;;;5063529;28;20044;-61
2023/07/22 04:11:47;;;;;;;6.00;3.05;;;;;;;;;;5037507;28;20036;-61
2023/07/22 04:14:13;;;;;;;7.07;2.70;;;;;;;;;;5046111;28;20040;-62
2023/07/22 04:16:40;;;;;;;5.32;2.60;;;;;;;;;;5073758;28;20552;-62
2023/07/22 04:19:06;;;;;;;5.20;2.70;;;;;;;;;;5073162;28;20044;-63
2023/07/22 04:21:33;;;;;;;8.70;3.25;;;;;;;;;;5073314;28;20032;-62
2023/07/22 04:23:59;;;;;;;6.55;2.60;;;;;;;;;;5078310;28;20353;-63
2023/07/22 04:26:26;;;;;;;8.38;3.38;;;;;;;;;;5075008;28;20032;-64
2023/07/22 04:28:52;;;;;;;5.50;3.15;;;;;;;;;;5076446;28;20036;-61
2023/07/22 04:31:19;;;;;;;8.25;3.53;;;;;;;;;;5077526;28;20055;-63
2023/07/22 04:33:46;;;;;;;8.70;3.20;;;;;;;;;;5075392;28;20045;-62
2023/07/22 04:36:12;;;;;;;7.82;3.20;;;;;;;;;;5073564;28;20040;-63
2023/07/22 04:38:39;;;;;;;6.35;3.10;;;;;;;;;;5066872;28;20541;-63
2023/07/22 04:41:06;;;;;;;7.50;3.28;;;;;;;;;;5067058;28;20045;-62
2023/07/22 04:43:32;;;;;;;6.97;3.28;;;;;;;;;;5040000;28;20512;-62
2023/07/22 04:45:59;;;;;;;6.75;3.33;;;;;;;;;;5066573;28;20040;-62
2023/07/22 04:48:26;;;;;;;7.07;3.55;;;;;;;;;;5016859;28;20118;-63
2023/07/22 04:50:52;;;;;;;7.53;3.63;;;;;;;;;;5064416;28;20044;-61
2023/07/22 04:53:19;;;;;;;6.05;3.30;;;;;;;;;;5062507;28;20029;-63
2023/07/22 04:55:46;;;;;;;9.20;3.70;;;;;;;;;;5062012;28;20059;-61
2023/07/22 04:58:12;;;;;;;6.35;3.30;;;;;;;;;;5066686;28;20082;-61
2023/07/22 05:00:39;;;;;;;7.72;3.47;;;;;;;;;;5063408;28;20033;-63
2023/07/22 05:03:06;;;;;;;7.22;3.28;;;;;;;;;;5045573;28;20048;-60
2023/07/22 05:05:33;;;;;;;5.93;3.17;;;;;;;;;;5062790;28;20462;-59
2023/07/22 05:08:19;;;;;;;12.45;4.00;;;;;;;;;;4997912;28;20124;-62
2023/07/22 05:10:47;;;;;;;11.13;4.05;;;;;;;;;;4994565;28;20076;-61
2023/07/22 05:13:14;;;;;;;22.27;4.95;;;;;;;;;;4995894;28;20068;-62
2023/07/22 05:15:40;;;;;;;11.10;4.28;;;;;;;;;;4995945;28;20096;-65
2023/07/22 05:18:07;;;;;;;9.15;4.30;;;;;;;;;;5001312;28;20040;-62
2023/07/22 05:20:33;;;;;;;8.40;4.45;;;;;;;;;;5001132;28;20029;-63
2023/07/22 05:23:00;;;;;;;9.00;4.00;;;;;;;;;;5000621;28;20179;-64
2023/07/22 05:25:27;;;;;;;9.35;4.38;;;;;;;;;;4964353;28;20113;-64
2023/07/22 05:27:53;;;;;;;8.73;4.47;;;;;;;;;;4971389;28;20070;-65
2023/07/22 05:30:20;;;;;;;11.10;4.57;;;;;;;;;;4976683;28;20042;-64
2023/07/22 05:32:46;;;;;;;7.93;4.55;;;;;;;;;;4986979;28;20043;-63
2023/07/22 05:35:13;;;;;;;9.05;4.53;;;;;;;;;;4991278;28;20078;-63
2023/07/22 05:37:39;;;;;;;7.13;4.00;;;;;;;;;;4978716;28;20049;-62
2023/07/22 05:40:07;;;;;;;8.68;4.40;;;;;;;;;;4972672;28;20043;-61
2023/07/22 05:42:34;;;;;;;9.40;4.15;;;;;;;;;;4967454;28;20031;-64
2023/07/22 05:45:01;;;;;;;8.20;4.57;;;;;;;;;;4974411;28;20044;-64
2023/07/22 05:47:27;;;;;;;9.07;4.28;;;;;;;;;;5009520;28;20034;-63
2023/07/22 05:49:54;;;;;;;9.05;4.65;;;;;;;;;;5010383;28;20042;-62
2023/07/22 05:52:20;;;;;;;9.60;4.90;;;;;;;;;;5009315;28;20065;-62
2023/07/22 05:54:47;;;;;;;12.52;4.90;;;;;;;;;;5012317;28;20068;-62
2023/07/22 05:57:14;;;;;;;8.15;4.82;;;;;;;;;;5012589;28;20045;-62
2023/07/22 05:59:40;;;;;;;10.07;4.70;;;;;;;;;;5011162;28;20046;-63
2023/07/22 06:02:09;;;;;;;8.68;4.40;;;;;;;;;;5018065;28;20611;-60
2023/07/22 06:04:35;;;;;;;8.55;4.53;;;;;;;;;;5059425;28;20458;-61
2023/07/22 06:07:02;;;;;;;11.55;5.22;;;;;;;;;;5063295;28;20051;-62
2023/07/22 06:09:28;;;;;;;9.07;5.22;;;;;;;;;;5032808;28;20039;-62
2023/07/22 06:11:55;;;;;;;8.90;4.80;;;;;;;;;;5060093;28;20044;-63
2023/07/22 06:14:21;;;;;;;9.68;4.45;;;;;;;;;;5059842;28;20040;-63
2023/07/22 06:16:48;;;;;;;10.45;5.13;;;;;;;;;;5061865;28;20535;-61
2023/07/22 06:19:14;;;;;;;8.68;4.45;;;;;;;;;;5061218;28;20044;-61
2023/07/22 06:21:41;;;;;;;8.45;4.75;;;;;;;;;;5060172;28;20036;-61
2023/07/22 06:24:07;;;;;;;9.98;5.55;;;;;;;;;;5062365;28;20036;-61
2023/07/22 06:26:34;;;;;;;9.32;4.82;;;;;;;;;;5059478;28;20040;-62
2023/07/22 06:29:00;;;;;;;9.15;4.95;;;;;;;;;;5059344;28;20523;-62
2023/07/22 06:31:30;;;;;;;10.30;4.90;;;;;;;;;;5060492;28;20040;-60
2023/07/22 06:33:59;;;;;;;9.00;4.68;;;;;;;;;;5061593;28;20033;-61
2023/07/22 06:36:26;;;;;;;8.30;4.70;;;;;;;;;;5037870;28;20047;-61
2023/07/22 06:38:52;;;;;;;7.95;4.93;;;;;;;;;;5063239;28;20485;-61
2023/07/22 06:41:19;;;;;;;7.80;4.80;;;;;;;;;;5061433;28;20068;-62
2023/07/22 06:43:46;;;;;;;8.25;4.28;;;;;;;;;;5058364;28;20066;-63
2023/07/22 06:46:12;;;;;;;8.25;4.97;;;;;;;;;;5059550;28;20041;-61
2023/07/22 06:48:39;;;;;;;7.82;4.43;;;;;;;;;;5057081;28;20146;-61
2023/07/22 06:51:05;;;;;;;8.27;4.72;;;;;;;;;;5061758;28;20516;-63
2023/07/22 06:53:32;;;;;;;9.32;5.10;;;;;;;;;;5061595;28;20088;-62
2023/07/22 06:55:58;;;;;;;14.13;5.07;;;;;;;;;;5062601;28;20507;-62
2023/07/22 06:58:27;;;;;;;9.40;4.68;;;;;;;;;;5062273;28;20127;-61
2023/07/22 07:00:55;;;;;;;9.90;4.63;;;;;;;;;;5060677;28;20030;-63
2023/07/22 07:03:22;;;;;;;9.38;4.45;;;;;;;;;;5057834;28;20048;-61
2023/07/22 07:05:55;;;;;;;9.23;4.47;;;;;;;;;;5045534;28;20043;-63
2023/07/22 07:08:23;;;;;;;8.07;4.82;;;;;;;;;;5061624;28;20033;-62
2023/07/22 07:10:49;;;;;;;12.10;5.05;;;;;;;;;;5062326;28;20040;-63
2023/07/22 07:13:16;;;;;;;8.38;4.30;;;;;;;;;;5049266;28;20036;-62
2023/07/22 07:15:48;;;;;;;10.07;4.40;;;;;;;;;;5064040;28;20139;-62
2023/07/22 07:18:15;;;;;;;11.10;5.00;;;;;;;;;;5064466;28;20040;-65
2023/07/22 07:20:42;;;;;;;11.40;4.57;;;;;;;;;;5046044;28;20041;-62
2023/07/22 07:23:08;;;;;;;9.32;4.80;;;;;;;;;;5061586;28;20033;-61
2023/07/22 07:25:35;;;;;;;11.13;4.50;;;;;;;;;;5061623;28;20135;-61
2023/07/22 07:28:01;;;;;;;9.07;4.88;;;;;;;;;;5064555;28;20139;-61
2023/07/22 07:30:28;;;;;;;11.50;5.22;;;;;;;;;;5052233;28;20048;-62
2023/07/22 07:32:54;;;;;;;9.27;4.80;;;;;;;;;;5060551;28;20047;-63
2023/07/22 07:35:21;;;;;;;7.85;4.65;;;;;;;;;;5048326;28;20378;-61
2023/07/22 07:37:48;;;;;;;10.60;4.88;;;;;;;;;;5050073;28;20036;-61
2023/07/22 07:40:14;;;;;;;9.45;4.53;;;;;;;;;;5067150;28;20036;-63
2023/07/22 07:42:41;;;;;;;12.50;4.68;;;;;;;;;;5064384;28;20399;-60
2023/07/22 07:45:08;;;;;;;8.00;4.88;;;;;;;;;;5064435;28;20028;-61
2023/07/22 07:47:34;;;;;;;11.63;4.72;;;;;;;;;;5065160;28;20038;-67
2023/07/22 07:50:03;;;;;;;9.68;4.93;;;;;;;;;;5048884;28;20055;-60
2023/07/22 07:52:29;;;;;;;9.75;5.32;;;;;;;;;;5039317;28;20032;-60
2023/07/22 07:54:56;;;;;;;8.95;4.63;;;;;;;;;;5064019;28;22393;-62
2023/07/22 07:57:22;;;;;;;10.73;5.03;;;;;;;;;;5062788;28;20033;-64
2023/07/22 07:59:49;;;;;;;9.05;4.90;;;;;;;;;;5046408;28;20121;-62
2023/07/22 08:02:15;;;;;;;13.48;5.50;;;;;;;;;;5060547;28;20127;-63
2023/07/22 08:04:42;;;;;;;12.48;5.05;;;;;;;;;;5061560;28;20166;-62
2023/07/22 08:07:08;;;;;;;9.70;5.35;;;;;;;;;;5062355;28;20036;-63
2023/07/22 08:09:35;;;;;;;12.00;5.25;;;;;;;;;;5034682;28;20377;-63
2023/07/22 08:12:03;;;;;;;12.43;5.25;;;;;;;;;;5034971;28;20171;-66
2023/07/22 08:14:30;;;;;;;11.40;5.32;;;;;;;;;;5061888;28;20040;-61
2023/07/22 08:17:15;;;;;;;9.68;4.95;;;;;;;;;;5013059;28;20037;-64
2023/07/22 08:19:42;;;;;;;13.55;4.97;;;;;;;;;;5013505;28;20773;-60
2023/07/22 08:22:09;;;;;;;10.88;5.55;;;;;;;;;;5014102;28;20142;-63
2023/07/22 08:24:35;;;;;;;12.43;5.95;;;;;;;;;;5012803;28;20034;-64
2023/07/22 08:27:02;;;;;;;11.32;5.25;;;;;;;;;;5012304;28;20037;-63
2023/07/22 08:29:28;;;;;;;9.15;4.95;;;;;;;;;;4991977;28;20414;-60
2023/07/22 08:31:55;;;;;;;8.98;5.18;;;;;;;;;;5013402;28;20419;-60
2023/07/22 08:34:21;;;;;;;9.15;5.05;;;;;;;;;;5013437;28;20046;-62
2023/07/22 08:36:49;;;;;;;7.88;4.40;;;;;;;;;;5013204;28;20824;-62
2023/07/22 08:39:15;;;;;;;9.15;4.70;;;;;;;;;;5012592;28;20042;-68
2023/07/22 08:41:43;;;;;;;8.50;4.72;;;;;;;;;;5012547;28;20037;-60
2023/07/22 08:44:11;;;;;;;11.05;4.82;;;;;;;;;;5011344;28;20169;-61
2023/07/22 08:46:39;;;;;;;7.57;4.80;;;;;;;;;;4989722;28;20036;-61
2023/07/22 08:49:06;;;;;;;11.25;5.80;;;;;;;;;;5051213;28;20091;-62
2023/07/22 08:51:34;;;;;;;8.35;4.70;;;;;;;;;;5059567;28;20032;-61
2023/07/22 08:54:01;;;;;;;10.70;4.82;;;;;;;;;;5041309;28;20051;-60
2023/07/22 08:56:28;;;;;;;10.32;5.13;;;;;;;;;;5061554;28;20032;-60
2023/07/22 08:58:55;;;;;;;8.45;4.35;;;;;;;;;;5057249;28;20074;-61
2023/07/22 09:01:22;;;;;;;7.82;4.45;;;;;;;;;;5033242;28;20033;-62
2023/07/22 09:03:53;;;;;;;7.20;4.35;;;;;;;;;;4993799;28;1941646;-60
2023/07/22 09:06:20;;;;;;;8.05;4.75;;;;;;;;;;5058921;28;20791;-62
2023/07/22 09:08:47;;;;;;;10.80;4.93;;;;;;;;;;5034588;28;20029;-60
2023/07/22 09:11:14;;;;;;;8.10;4.10;;;;;;;;;;5061622;28;20033;-61
2023/07/22 09:13:41;;;;;;;7.55;4.45;;;;;;;;;;5058747;28;20060;-61
2023/07/22 09:16:08;;;;;;;9.48;4.65;;;;;;;;;;5062274;28;20051;-60
2023/07/22 09:18:34;;;;;;;8.27;5.03;;;;;;;;;;5060688;28;20033;-60
2023/07/22 09:21:01;;;;;;;8.25;4.40;;;;;;;;;;5046827;28;20074;-63
2023/07/22 09:23:34;;;;;;;7.45;4.40;;;;;;;;;;5044688;28;20761;-60
2023/07/22 09:26:11;;;;;;;10.65;4.93;;;;;;;;;;5060273;28;20036;-60
2023/07/22 09:28:57;;;;;;;11.82;4.60;;;;;;;;;;5033941;28;20038;-62
2023/07/22 09:31:32;;;;;;;14.15;5.03;;;;;;;;;;5002650;28;20041;-62
2023/07/22 09:34:10;;;;;;;8.82;4.82;;;;;;;;;;5000898;28;20216;-65
2023/07/22 09:36:49;;;;;;;10.13;5.00;;;;;;;;;;4983834;28;20115;-63
2023/07/22 09:39:16;;;;;;;9.65;4.65;;;;;;;;;;5002663;28;20041;-63
2023/07/22 09:41:43;;;;;;;14.02;4.85;;;;;;;;;;4983102;28;20052;-62
2023/07/22 09:44:12;;;;;;;7.40;4.53;;;;;;;;;;5001216;28;20435;-63
2023/07/22 09:46:39;;;;;;;9.18;4.78;;;;;;;;;;4981028;28;20450;-61
2023/07/22 09:49:06;;;;;;;8.77;5.05;;;;;;;;;;5001381;28;20041;-62
2023/07/22 09:51:36;;;;;;;9.30;5.40;;;;;;;;;;5002043;28;20405;-64
2023/07/22 09:54:04;;;;;;;8.40;4.85;;;;;;;;;;5001105;28;20121;-62
2023/07/22 09:56:30;;;;;;;9.57;4.85;;;;;;;;;;4999846;28;20048;-62
2023/07/22 09:58:59;;;;;;;9.07;5.03;;;;;;;;;;5001744;28;20454;-61
2023/07/22 10:01:26;;;;;;;9.38;4.93;;;;;;;;;;5005712;28;20419;-61
2023/07/22 10:03:57;;;;;;;10.20;4.43;;;;;;;;;;5033728;28;20045;-62
2023/07/22 10:06:28;;;;;;;7.93;4.35;;;;;;;;;;5060654;28;20520;-61
2023/07/22 10:08:57;;;;;;;8.57;4.40;;;;;;;;;;5060137;28;20040;-64
2023/07/22 10:11:26;;;;;;;7.70;4.72;;;;;;;;;;5061054;28;20028;-62
2023/07/22 10:13:53;;;;;;;10.13;4.68;;;;;;;;;;5060281;28;20036;-63
2023/07/22 10:16:20;;;;;;;7.10;4.20;;;;;;;;;;5059518;28;20094;-62
2023/07/22 10:18:47;;;;;;;9.25;4.75;;;;;;;;;;5034703;28;20071;-63
2023/07/22 10:21:14;;;;;;;7.25;4.07;;;;;;;;;;5041385;28;20052;-61
2023/07/22 10:23:41;;;;;;;7.35;4.50;;;;;;;;;;5036654;28;20073;-60
2023/07/22 10:26:10;;;;;;;9.32;4.65;;;;;;;;;;5073162;28;20028;-60
2023/07/22 10:28:38;;;;;;;8.07;4.70;;;;;;;;;;5053468;28;20039;-61
2023/07/22 10:31:04;;;;;;;10.40;4.68;;;;;;;;;;5071041;28;20036;-60
2023/07/22 10:33:31;;;;;;;7.68;4.50;;;;;;;;;;5070877;28;20483;-61
2023/07/22 10:36:10;;;;;;;9.27;4.97;;;;;;;;;;5068941;28;20035;-63
2023/07/22 10:38:37;;;;;;;8.07;4.63;;;;;;;;;;5043628;28;20033;-63
2023/07/22 10:41:12;;;;;;;8.32;4.50;;;;;;;;;;5070874;28;20031;-61
2023/07/22 10:43:38;;;;;;;9.45;4.40;;;;;;;;;;5044351;28;20032;-61
2023/07/22 10:46:16;;;;;;;11.10;4.55;;;;;;;;;;5071734;28;20031;-62
2023/07/22 10:48:42;;;;;;;8.85;4.60;;;;;;;;;;5068527;28;20072;-62
2023/07/22 10:51:36;;;;;;;7.15;3.92;;;;;;;;;;5033034;28;20033;-61
2023/07/22 10:54:03;;;;;;;8.43;4.15;;;;;;;;;;5016618;28;20052;-61
2023/07/22 10:56:29;;;;;;;9.88;5.05;;;;;;;;;;5038426;28;20053;-62
2023/07/22 10:58:57;;;;;;;8.82;4.95;;;;;;;;;;5037871;28;20033;-62
2023/07/22 11:01:29;;;;;;;9.68;4.63;;;;;;;;;;5022199;28;20755;-62
2023/07/22 11:04:14;;;;;;;12.20;5.20;;;;;;;;;;5035902;28;20045;-59
2023/07/22 11:06:46;;;;;;;10.00;5.35;;;;;;;;;;5037303;28;20029;-62
2023/07/22 11:09:28;;;;;;;9.98;5.22;;;;;;;;;;5035612;28;20117;-64
2023/07/22 11:11:58;;;;;;;10.53;5.17;;;;;;;;;;5042619;28;20367;-62
2023/07/22 11:14:25;;;;;;;7.90;4.70;;;;;;;;;;5041713;28;20094;-61
2023/07/22 11:16:52;;;;;;;9.40;4.72;;;;;;;;;;5037309;28;20045;-62
2023/07/22 11:19:20;;;;;;;9.70;5.03;;;;;;;;;;5029375;28;20047;-61
2023/07/22 11:21:47;;;;;;;8.93;4.63;;;;;;;;;;5030206;28;20052;-63
2023/07/22 11:24:14;;;;;;;8.90;4.43;;;;;;;;;;5012355;28;20040;-62
2023/07/22 11:26:41;;;;;;;11.25;5.32;;;;;;;;;;5030503;28;20057;-62
2023/07/22 11:29:08;;;;;;;12.02;5.38;;;;;;;;;;5029781;28;20086;-62
2023/07/22 11:31:42;;;;;;;9.80;5.10;;;;;;;;;;5045042;28;20025;-62
2023/07/22 11:34:29;;;;;;;10.15;5.30;;;;;;;;;;5041948;28;20061;-65
2023/07/22 11:36:56;;;;;;;11.75;5.43;;;;;;;;;;5041745;28;20182;-61
2023/07/22 11:39:24;;;;;;;8.25;5.03;;;;;;;;;;5039485;28;20505;-59
2023/07/22 11:41:51;;;;;;;11.30;5.18;;;;;;;;;;5042239;28;20032;-63
2023/07/22 11:44:20;;;;;;;8.65;5.05;;;;;;;;;;5041371;28;20051;-61
2023/07/22 11:46:54;;;;;;;12.60;5.38;;;;;;;;;;5041842;28;20071;-62
2023/07/22 11:49:28;;;;;;;8.30;4.70;;;;;;;;;;5040474;28;20075;-63
2023/07/22 11:52:14;;;;;;;;;;;;;;;;;;4988501;28;20520;-63
2023/07/22 11:54:41;;;;;;;9.73;5.20;;;;;;;;;;4988376;28;20031;-65
2023/07/22 11:57:25;;;;;;;10.07;5.25;;;;;;;;;;4988015;28;20156;-62
2023/07/22 11:59:53;;;;;;;9.25;4.88;;;;;;;;;;4987295;28;20103;-63
2023/07/22 12:02:21;;;;;;;11.85;5.60;;;;;;;;;;4986192;28;20046;-63
2023/07/22 12:04:58;;;;;;;11.55;5.72;;;;;;;;;;4990997;28;20041;-63
2023/07/22 12:07:24;;;;;;;12.90;5.38;;;;;;;;;;5007545;28;20037;-63
2023/07/22 12:09:52;;;;;;;9.70;5.25;;;;;;;;;;5007446;28;20049;-65
2023/07/22 12:12:19;;;;;;;11.10;6.07;;;;;;;;;;5007218;28;20119;-65
2023/07/22 12:14:45;;;;;;;12.57;5.82;;;;;;;;;;5006172;28;20045;-61
2023/07/22 12:17:12;;;;;;;12.02;5.43;;;;;;;;;;5007682;28;20062;-62
2023/07/22 12:19:38;;;;;;;9.98;4.90;;;;;;;;;;5005884;28;20072;-63
2023/07/22 12:22:05;;;;;;;11.10;4.85;;;;;;;;;;5006658;28;20037;-62
2023/07/22 12:24:31;;;;;;;10.02;4.97;;;;;;;;;;5005852;28;20065;-63
2023/07/22 12:26:58;;;;;;;8.52;5.00;;;;;;;;;;5005854;28;20768;-62
2023/07/22 12:29:25;;;;;;;10.65;5.35;;;;;;;;;;5012655;28;20132;-62
2023/07/22 12:31:52;;;;;;;7.78;4.90;;;;;;;;;;5033024;28;20056;-63
2023/07/22 12:34:18;;;;;;;9.43;5.03;;;;;;;;;;5040606;28;20040;-59
2023/07/22 12:36:45;;;;;;;10.02;4.85;;;;;;;;;;5039698;28;20159;-60
2023/07/22 12:39:11;;;;;;;8.45;4.93;;;;;;;;;;5040609;28;20083;-62
2023/07/22 12:41:38;;;;;;;12.27;5.03;;;;;;;;;;5052619;28;21081;-62
2023/07/22 12:44:05;;;;;;;11.57;5.38;;;;;;;;;;5033219;28;20058;-61
2023/07/22 12:46:31;;;;;;;9.00;5.63;;;;;;;;;;5040626;28;20393;-60
2023/07/22 12:48:58;;;;;;;8.13;4.60;;;;;;;;;;5040334;28;20488;-62
2023/07/22 12:51:25;;;;;;;8.85;5.15;;;;;;;;;;5040914;28;20155;-61
2023/07/22 12:53:51;;;;;;;9.82;4.97;;;;;;;;;;5052274;28;20060;-62
2023/07/22 12:56:18;;;;;;;9.20;5.05;;;;;;;;;;5051619;28;20800;-60
2023/07/22 12:58:44;;;;;;;12.48;5.28;;;;;;;;;;5041834;28;20036;-61
2023/07/22 13:01:11;;;;;;;10.20;5.53;;;;;;;;;;5040352;28;20056;-62
2023/07/22 13:03:37;;;;;;;10.48;5.40;;;;;;;;;;5056289;28;20084;-61
2023/07/22 13:06:04;;;;;;;10.95;5.63;;;;;;;;;;5035908;28;20032;-61
2023/07/22 13:08:30;;;;;;;9.18;5.35;;;;;;;;;;5034738;28;20085;-63
2023/07/22 13:10:57;;;;;;;9.35;5.50;;;;;;;;;;5042774;28;20090;-65
2023/07/22 13:13:23;;;;;;;8.05;5.05;;;;;;;;;;5061620;28;20033;-63
2023/07/22 13:15:50;;;;;;;7.80;4.43;;;;;;;;;;5062091;28;20397;-63
2023/07/22 13:18:16;;;;;;;11.20;5.00;;;;;;;;;;5059525;28;20167;-61
2023/07/22 13:20:43;;;;;;;7.00;3.90;;;;;;;;;;5047424;28;20032;-63
2023/07/22 13:23:10;;;;;;;7.75;4.57;;;;;;;;;;5060683;28;20024;-61
2023/07/22 13:25:36;;;;;;;9.48;4.60;;;;;;;;;;5058586;28;20129;-61
2023/07/22 13:28:03;;;;;;;8.05;4.13;;;;;;;;;;5062888;28;20028;-60
2023/07/22 13:30:29;;;;;;;9.13;4.57;;;;;;;;;;5034199;28;20051;-62
2023/07/22 13:32:56;;;;;;;7.57;4.15;;;;;;;;;;5061487;28;20514;-61
2023/07/22 13:35:23;;;;;;;8.48;3.92;;;;;;;;;;5060203;28;20036;-66
2023/07/22 13:37:50;;;;;;;10.93;4.38;;;;;;;;;;5040871;28;20043;-63
2023/07/22 13:40:17;;;;;;;7.93;4.30;;;;;;;;;;5038466;28;20408;-63
2023/07/22 13:42:45;;;;;;;8.27;3.88;;;;;;;;;;5068785;28;20028;-63
2023/07/22 13:45:12;;;;;;;8.80;3.90;;;;;;;;;;5064048;28;20051;-63
2023/07/22 13:47:39;;;;;;;8.02;3.70;;;;;;;;;;5065769;28;20470;-66
2023/07/22 13:50:05;;;;;;;9.38;4.25;;;;;;;;;;5039942;28;20032;-64
2023/07/22 13:52:32;;;;;;;6.78;3.65;;;;;;;;;;5042670;28;20042;-64
2023/07/22 13:54:58;;;;;;;9.45;4.88;;;;;;;;;;5067335;28;20058;-65
2023/07/22 13:57:25;;;;;;;8.13;3.90;;;;;;;;;;5071328;28;20307;-63
2023/07/22 13:59:52;;;;;;;9.82;4.28;;;;;;;;;;5052635;28;20070;-64
2023/07/22 14:02:19;;;;;;;7.47;4.18;;;;;;;;;;5073747;28;20048;-64
2023/07/22 14:04:45;;;;;;;8.20;4.43;;;;;;;;;;5070849;28;20033;-64
2023/07/22 14:07:13;;;;;;;8.23;4.57;;;;;;;;;;5070070;28;20032;-65
2023/07/22 14:09:39;;;;;;;6.40;3.88;;;;;;;;;;5044951;28;20682;-64
2023/07/22 14:12:06;;;;;;;9.32;4.05;;;;;;;;;;5071034;28;20050;-64
2023/07/22 14:14:33;;;;;;;8.25;4.47;;;;;;;;;;5064772;28;20028;-65
2023/07/22 14:16:59;;;;;;;8.10;4.32;;;;;;;;;;5059415;28;20037;-66
2023/07/22 14:19:26;;;;;;;8.70;4.13;;;;;;;;;;5058431;28;20068;-63
2023/07/22 14:21:52;;;;;;;9.93;4.15;;;;;;;;;;5058866;28;20032;-63
2023/07/22 14:24:19;;;;;;;8.38;4.10;;;;;;;;;;5045295;28;20035;-65
2023/07/22 14:26:47;;;;;;;7.68;3.95;;;;;;;;;;5062622;28;20297;-63
2023/07/22 14:29:14;;;;;;;9.85;4.43;;;;;;;;;;5060628;28;20090;-63
2023/07/22 14:31:40;;;;;;;9.85;4.38;;;;;;;;;;5058973;28;20036;-66
2023/07/22 14:34:07;;;;;;;9.57;4.72;;;;;;;;;;5066192;28;20028;-67
2023/07/22 14:36:33;;;;;;;9.27;3.90;;;;;;;;;;5070128;28;20040;-64
2023/07/22 14:39:00;;;;;;;7.88;3.40;;;;;;;;;;5064675;28;20033;-66
2023/07/22 14:41:26;;;;;;;7.00;3.88;;;;;;;;;;5062415;28;20041;-65
2023/07/22 14:43:53;;;;;;;5.88;3.85;;;;;;;;;;5039820;28;20036;-65